This demonstration page uses our WeatherBlox Daily Observations layout. Learn more.

39.92423, -83.80882

Hourly Observations for April 27, 2019

Temp ( °F °C ) Dew Point ( °F °C ) Humidity (%) Winds ( mph kmh ) Pressure ( in mb ) Visibility ( mi km ) Precip ( " mm )
12:56 am 00:56 Clear 45 7.2 37 2.8 74 74 W 7 11 29.89 1012 10 16.0934 0.02 0.508
1:56 am 01:56 Clear 43 6.1 38 3.3 82 82 WSW 7 11 29.9 1013 10 16.0934 0.03 0.762
2:56 am 02:56 Clear 42 5.6 37 2.8 82 82 WSW 6 9 29.89 1012 10 16.0934 0.02 0.508
3:56 am 03:56 Clear 42 5.6 37 2.8 82 82 WSW 7 11 29.88 1012 10 16.0934 0.02 0.508
4:56 am 04:56 Clear 43 6.1 37 2.8 80 80 WSW 9 15 29.9 1013 10 16.0934 0.02 0.508
5:56 am 05:56 Clear 41 5 37 2.8 86 86 W 8 13 29.92 1013 10 16.0934 0.02 0.508
6:56 am 06:56 Sunny 40 4.4 36 2.2 86 86 W 6 9 29.95 1014 10 16.0934 0.03 0.762
7:56 am 07:56 Sunny 45 7.2 38 3.3 77 77 WNW 5 7 29.97 1015 10 16.0934 0.02 0.508
8:56 am 08:56 Sunny 48 8.9 32 0 54 54 NNW 9 15 29.97 1015 10 16.0934 0.03 0.762
10:56 am 10:56 Sunny 53 11.7 31 -0.6 43 43 NNW 9 15 29.97 1015 10 16.0934 0.04 1.016
11:56 am 11:56 Sunny 55 12.8 33 0.6 44 44 SW 7 11 29.96 1015 10 16.0934 0.03 0.762
12:56 pm 12:56 Mostly Cloudy 56 13.3 33 0.6 42 42 W 7 11 29.94 1014 10 16.0934 0.04 1.016
2:56 pm 14:56 Cloudy 55 12.8 32 0 42 42 W 5 7 29.92 1013 10 16.0934 0.02 0.508
3:56 pm 15:56 Cloudy 55 12.8 35 1.7 47 47 N 6 9 29.93 1014 10 16.0934 0.02 0.508
4:56 pm 16:56 Cloudy with Light Rain 52 11.1 39 3.9 61 61 E 5 7 29.9 1013 10 16.0934 0.02 0.508
5:56 pm 17:56 Cloudy with Light Rain 50 10 43 6.1 77 77 SSE 3 6 29.89 1012 10 16.0934 0.01 0.254
7:56 pm 19:56 Cloudy with Light Rain 47 8.3 46 7.8 97 97 ESE 7 11 29.86 1011 9 14.48406 0 0
9:07 pm 21:07 Cloudy 48 9 46 8 94 94 SE 12 19 29.81 1009 10 16.0934 0 0
9:33 pm 21:33 Cloudy 46 8 46 8 100 100 ESE 14 22 29.8 1009 10 16.0934 0 0
9:56 pm 21:56 Cloudy 47 8.3 46 7.8 97 97 ESE 13 20 29.78 1008 10 16.0934 0.01 0.254
10:08 pm 22:08 Cloudy 46 8 46 8 100 100 ESE 12 19 29.78 1008 10 16.0934 0 0
10:56 pm 22:56 Cloudy with Light Rain 47 8.3 46 7.8 97 97 SE 14 22 29.75 1008 10 16.0934 0 0.0254
11:09 pm 23:09 Cloudy with Light Rain 46 8 46 8 100 100 SE 16 26 29.75 1007 10 16.0934 0 0.0254
11:56 pm 23:56 Cloudy 48 8.9 47 8.3 96 96 SE 18 30 29.7 1006 10 16.0934 0.01 0.254

Powered by AerisWeather